createdAt,value
2022-10-11T14:13:39.379Z,1.80
2022-10-11T14:16:19.721Z,2.40
2022-10-11T14:18:49.085Z,1.95
2022-10-11T14:21:20.405Z,2.28
2022-10-11T14:26:21.577Z,2.88
2022-10-11T14:29:01.087Z,1.70
2022-10-11T14:31:31.081Z,2.75
2022-10-11T14:33:59.625Z,1.92
2022-10-11T14:36:28.105Z,3.63
2022-10-11T14:38:56.361Z,1.90
2022-10-11T14:41:24.773Z,2.33
2022-10-11T14:43:56.454Z,2.90
2022-10-11T14:46:26.569Z,2.10
2022-10-11T14:48:56.245Z,1.93
2022-10-11T14:51:32.514Z,2.30
2022-10-11T14:54:00.895Z,2.63
2022-10-11T14:56:28.990Z,3.45
2022-10-11T14:58:57.098Z,2.45
2022-10-11T15:01:25.528Z,2.67
2022-10-11T15:03:53.685Z,2.67
2022-10-11T15:06:28.449Z,2.15
2022-10-11T15:08:56.651Z,2.25
2022-10-11T15:11:25.498Z,2.80
2022-10-11T15:13:54.280Z,2.45
2022-10-11T15:16:22.945Z,2.85
2022-10-11T15:18:52.080Z,2.42
2022-10-11T15:21:22.410Z,2.80
2022-10-11T15:23:51.598Z,2.90
2022-10-11T15:26:22.786Z,2.25
2022-10-11T15:28:52.044Z,2.90
2022-10-11T15:31:20.517Z,2.55
2022-10-11T15:33:48.929Z,3.00
2022-10-11T15:36:19.588Z,2.70
2022-10-11T15:38:48.446Z,3.17
2022-10-11T15:41:18.955Z,2.60
2022-10-11T15:43:48.697Z,2.30
2022-10-11T15:46:22.358Z,2.60
2022-10-11T15:48:51.757Z,2.50
2022-10-11T15:51:20.224Z,2.60
2022-10-11T15:53:48.302Z,3.30
2022-10-11T15:56:19.023Z,2.88
2022-10-11T15:58:47.467Z,3.88
2022-10-11T16:01:18.995Z,3.53
2022-10-11T16:03:49.127Z,3.33
2022-10-11T16:06:18.290Z,2.97
2022-10-11T16:08:47.814Z,3.67
2022-10-11T16:11:16.211Z,3.13
2022-10-11T16:13:45.214Z,3.53
2022-10-11T16:16:13.682Z,3.42
2022-10-11T16:18:41.787Z,3.58
2022-10-11T16:21:11.838Z,4.75
2022-10-11T16:23:40.141Z,3.55
2022-10-11T16:26:12.105Z,4.70
2022-10-11T16:28:42.127Z,4.38
2022-10-11T16:31:13.752Z,5.38
2022-10-11T16:33:47.983Z,5.55
2022-10-11T16:36:32.125Z,5.35
2022-10-11T16:39:02.131Z,6.05
2022-10-11T16:41:30.542Z,4.65
2022-10-11T16:43:58.772Z,5.40
2022-10-11T16:46:27.254Z,5.15
2022-10-11T16:48:56.265Z,5.25
2022-10-11T16:51:24.954Z,5.40
2022-10-11T16:53:53.737Z,5.55
2022-10-11T16:56:22.828Z,4.88
2022-10-11T16:58:52.669Z,5.88
2022-10-11T17:01:21.193Z,4.70
2022-10-11T17:03:50.560Z,5.28
2022-10-11T17:06:19.447Z,4.45
2022-10-11T17:08:47.809Z,5.03
2022-10-11T17:11:17.724Z,5.53
2022-10-11T17:13:47.713Z,5.22
2022-10-11T17:16:17.331Z,4.22
2022-10-11T17:18:45.683Z,5.57
2022-10-11T17:21:15.820Z,4.75
2022-10-11T17:23:44.371Z,5.00
2022-10-11T17:26:17.455Z,4.20
2022-10-11T17:28:46.332Z,4.82
2022-10-11T17:31:14.596Z,5.00
2022-10-11T17:33:43.088Z,5.35
2022-10-11T17:36:32.119Z,5.70
2022-10-11T17:39:03.833Z,5.90
2022-10-11T17:41:32.526Z,5.93
2022-10-11T17:44:02.924Z,5.80
2022-10-11T17:46:34.278Z,6.22
2022-10-11T17:51:37.422Z,7.47
2022-10-11T17:54:06.532Z,7.07
2022-10-11T17:56:37.997Z,6.55
2022-10-11T17:59:07.459Z,7.07
2022-10-11T18:01:35.890Z,7.15
2022-10-11T18:04:06.186Z,7.53
2022-10-11T18:06:39.115Z,7.90
2022-10-11T18:09:07.304Z,7.00
2022-10-11T18:11:35.709Z,8.32
2022-10-11T18:14:05.301Z,7.82
2022-10-11T18:16:33.929Z,8.18
2022-10-11T18:19:07.272Z,7.05
2022-10-11T18:21:37.856Z,8.93
2022-10-11T18:24:11.001Z,8.25
2022-10-11T18:26:39.882Z,7.82
2022-10-11T18:29:08.227Z,9.02
2022-10-11T18:31:36.662Z,8.73
2022-10-11T18:34:06.280Z,10.05
2022-10-11T18:36:34.875Z,8.85
2022-10-11T18:39:05.949Z,10.13
2022-10-11T18:41:35.736Z,8.95
2022-10-11T18:44:06.790Z,8.63
2022-10-11T18:46:35.626Z,9.20
2022-10-11T18:49:03.904Z,9.05
2022-10-11T18:51:34.726Z,11.07
2022-10-11T18:54:03.627Z,11.80
2022-10-11T18:56:34.634Z,14.02
2022-10-11T18:59:03.594Z,13.85
2022-10-11T19:01:38.347Z,13.35
2022-10-11T19:04:09.046Z,12.68
2022-10-11T19:06:43.094Z,11.35
2022-10-11T19:09:12.593Z,11.95
2022-10-11T19:11:41.451Z,11.68
2022-10-11T19:14:11.950Z,11.13
2022-10-11T19:16:49.795Z,11.75
2022-10-11T19:19:24.029Z,11.35
2022-10-11T19:21:52.615Z,12.20
2022-10-11T19:24:23.576Z,14.50
2022-10-11T19:26:53.216Z,15.35
2022-10-11T19:29:26.608Z,15.43
2022-10-11T19:31:57.138Z,15.75
2022-10-11T19:34:27.635Z,16.70
2022-10-11T19:36:56.672Z,16.08
2022-10-11T19:39:25.633Z,17.35
2022-10-11T19:41:53.965Z,15.90
2022-10-11T19:44:22.140Z,16.23
2022-10-11T19:46:51.894Z,16.65
2022-10-11T19:49:25.160Z,16.60
2022-10-11T19:51:55.627Z,16.15
2022-10-11T19:54:24.211Z,16.00
2022-10-11T19:56:52.789Z,16.60
2022-10-11T19:59:21.068Z,17.58
2022-10-11T20:01:52.777Z,17.65
2022-10-11T20:07:10.098Z,17.83
2022-10-11T20:09:38.236Z,17.20
2022-10-11T20:12:06.940Z,15.52
2022-10-11T20:14:35.438Z,16.50
2022-10-11T20:17:03.915Z,15.43
2022-10-11T20:19:32.144Z,15.20
2022-10-11T20:22:01.233Z,16.10
2022-10-11T20:24:33.527Z,17.85
2022-10-11T20:27:03.992Z,14.98
2022-10-11T20:29:32.242Z,16.33
2022-10-11T20:32:00.690Z,16.33
2022-10-11T20:34:29.114Z,15.40
2022-10-11T20:36:57.964Z,15.45
2022-10-11T20:39:26.218Z,16.02
2022-10-11T20:41:54.619Z,16.55
2022-10-11T20:44:22.804Z,17.02
2022-10-11T20:46:50.917Z,15.93
2022-10-11T20:49:20.084Z,17.38
2022-10-11T20:51:48.565Z,15.60
2022-10-11T20:54:16.943Z,16.88
2022-10-11T20:56:45.285Z,17.73
2022-10-11T20:59:13.435Z,17.40
2022-10-11T21:01:41.912Z,16.38
2022-10-11T21:04:17.937Z,19.02
2022-10-11T21:06:49.511Z,18.67
2022-10-11T21:09:17.871Z,16.45
2022-10-11T21:11:46.996Z,17.52
2022-10-11T21:14:15.474Z,17.15
